Ibra, Oman
Current Conditions -  °F | °C
As of 10:50 PM on Friday 24 Oct 2014 (Local Time) from OOMS Reporting Station
Clear Clear  
Wind Chill: 84°   Ceiling: Unl
Heat Index: 90°   Visibility: 6mi
Dew Point: 72°   Wind: 5mph
Humidity: 66%   Direction: 220°SW
Pressure: 29.85"   Gusts: NA
Location:  22.72°N, 58.53°E
Report Text: OOMS 241850Z 22004KT 150V250 CAVOK 29/22 Q1011 NOSIG
Loading
Personal Weather Stations






























Interactive Weather Map New forecast layout! Learn more

10-Day Weather Forecast

Advertisements
Track Severe Weather on mobile